Latest Weather Observations for Melbourne (Olympic Park)

IDV60901

Issued at 1:11 pm EST Saturday 18 April 2015 (issued every 10 minutes, with the page automatically refreshed every 10 minutes)

About weather observations | Map of Melbourne area stations | Latest observations for Melbourne area | Other Formats
Station Details ID: 086338 Name: MELBOURNE (OLYMPIC PARK) Lat: -37.83 Lon: 144.98 Height: 7.53 m
Data from the previous 72 hours. | See also: Recent months at Melbourne (Olympic Park)
Date/Time
EST
Tmp

°C
App
Tmp
°C
Dew
Point
°C
Rel
Hum
%
Delta-T

°C
Wind Press
QNH
hPa
Press
MSL
hPa
Rain
since
9 am
mm
Dir
 
Spd
km/h
Gust
km/h
Spd
kts
Gust
kts
18/01:00pm 18.5 16.9 11.6 64 3.8 NW 11 19 6 10 1012.2 1012.2 0.0
18/12:30pm 18.0 17.4 12.2 69 3.2 NW 7 15 4 8 1012.5 1012.5 0.0
18/12:00pm 16.9 15.6 11.4 70 3.0 WNW 9 19 5 10 1013.4 1013.4 0.0
18/11:30am 16.2 15.1 12.0 76 2.3 W 9 19 5 10 1013.8 1013.8 0.0
18/11:00am 16.2 15.8 12.4 78 2.1 W 6 13 3 7 1013.7 1013.7 0.0
18/10:30am 15.6 15.1 12.2 80 1.9 W 6 11 3 6 1013.9 1013.9 0.0
18/10:00am 14.9 14.9 12.4 85 1.4 WSW 4 9 2 5 1014.1 1014.1 0.0
18/09:30am 14.6 14.6 12.5 87 1.1 W 4 13 2 7 1014.2 1014.2 0.0
18/09:00am 14.2 14.4 12.9 92 0.7 SW 4 9 2 5 1014.0 1014.0 3.6
18/08:30am 14.0 15.0 13.2 95 0.4 CALM 0 0 0 0 1014.2 1014.2 3.6
18/08:00am 13.8 14.5 13.5 98 0.2 SW 2 9 1 5 1013.8 1013.8 3.4
18/07:30am 14.2 15.5 14.2 100 0.0 CALM 0 0 0 0 1013.4 1013.4 3.4
18/07:00am 13.8 15.0 13.8 100 0.0 CALM 0 0 0 0 1013.1 1013.1 3.4
18/06:30am 13.7 14.9 13.7 100 0.0 CALM 0 6 0 3 1012.8 1012.8 3.4
18/06:00am 13.7 14.9 13.7 100 0.0 CALM 0 0 0 0 1012.7 1012.7 3.4
18/05:30am 13.6 14.7 13.6 100 0.0 CALM 0 0 0 0 1012.5 1012.5 3.4
18/05:00am 13.7 14.9 13.7 100 0.0 CALM 0 0 0 0 1012.4 1012.4 3.4
18/04:30am 13.7 14.9 13.7 100 0.0 CALM 0 0 0 0 1012.5 1012.5 3.4
18/04:00am 13.7 14.9 13.7 100 0.0 CALM 0 0 0 0 1012.5 1012.5 3.4
18/03:30am 13.9 14.0 13.9 100 0.0 W 6 11 3 6 1012.4 1012.4 3.4
18/03:00am 14.2 14.4 14.2 100 0.0 WSW 6 13 3 7 1012.6 1012.6 3.2
18/02:30am 14.2 14.8 14.2 100 0.0 W 4 11 2 6 1012.9 1012.9 3.2
18/02:00am 14.3 15.7 14.3 100 0.0 CALM 0 0 0 0 1012.7 1012.7 3.2
18/01:30am 14.3 15.7 14.3 100 0.0 CALM 0 0 0 0 1013.3 1013.3 3.2
18/01:00am 14.2 15.5 14.2 100 0.0 CALM 0 0 0 0 1013.3 1013.3 3.2
18/12:30am 14.1 15.3 13.9 99 0.1 CALM 0 0 0 0 1013.6 1013.6 3.2
18/12:00am 14.1 15.2 13.6 97 0.3 CALM 0 0 0 0 1014.0 1014.0 3.0
 
Date/Time
EST
Tmp

°C
App
Tmp
°C
Dew
Point
°C
Rel
Hum
%
Delta-T

°C
Wind Press
QNH
hPa
Press
MSL
hPa
Rain
since
9 am
mm
Dir
 
Spd
km/h
Gust
km/h
Spd
kts
Gust
kts
17/11:30pm 14.1 15.1 13.1 94 0.6 CALM 0 0 0 0 1014.4 1014.4 2.2
17/11:00pm 14.1 14.6 12.7 91 0.8 NE 2 6 1 3 1014.6 1014.6 1.4
17/10:30pm 14.1 14.1 12.3 89 1.0 ENE 4 9 2 5 1015.0 1015.0 1.4
17/10:00pm 14.2 15.0 12.4 89 1.0 CALM 0 6 0 3 1015.4 1015.4 1.4
17/09:30pm 14.0 13.6 12.4 90 0.9 N 6 9 3 5 1015.7 1015.7 1.4
17/09:00pm 14.0 13.4 12.4 90 0.9 NNE 7 11 4 6 1015.8 1015.8 1.2
17/08:30pm 14.3 13.4 12.7 90 0.9 NNE 9 15 5 8 1016.0 1016.0 1.2
17/08:00pm 14.5 13.5 12.4 87 1.1 NNE 9 11 5 6 1016.1 1016.1 1.2
17/07:30pm 14.4 14.3 12.1 86 1.2 NE 4 11 2 6 1016.6 1016.6 1.2
17/07:00pm 14.2 14.1 12.2 88 1.1 ESE 4 11 2 6 1016.9 1016.9 1.2
17/06:30pm 14.2 13.8 12.4 89 1.0 ESE 6 11 3 6 1016.4 1016.4 1.2
17/06:00pm 14.2 15.0 12.4 89 1.0 CALM 0 0 0 0 1016.8 1016.8 1.2
17/05:30pm 14.1 14.1 12.3 89 1.0 SSW 4 7 2 4 1016.9 1016.9 1.2
17/05:00pm 14.5 14.4 12.0 85 1.3 SW 4 9 2 5 1017.2 1017.2 1.2
17/04:30pm 14.7 14.4 11.3 80 1.8 NNE 4 7 2 4 1017.2 1017.2 1.0
17/04:00pm 14.7 13.9 11.1 79 1.9 NNE 6 9 3 5 1017.4 1017.4 1.0
17/03:30pm 14.8 13.8 11.0 78 2.0 NNW 7 11 4 6 1018.2 1018.2 0.6
17/03:00pm 15.6 13.9 9.9 69 3.0 NNW 9 13 5 7 1018.6 1018.6 0.0
17/02:30pm 16.3 13.9 8.8 61 3.8 NNW 11 15 6 8 1018.8 1018.8 0.0
17/02:00pm 16.5 14.0 8.0 57 4.3 N 11 13 6 7 1018.8 1018.8 0.0
17/01:30pm 16.7 15.1 8.1 57 4.4 NNW 6 11 3 6 1019.0 1019.0 0.0
17/01:00pm 16.6 14.9 8.3 58 4.2 NE 7 15 4 8 1019.4 1019.4 0.0
17/12:30pm 16.6 15.6 8.8 60 4.0 NNW 4 11 2 6 1020.1 1020.1 0.0
17/12:00pm 16.5 15.4 8.5 59 4.1 SSE 4 11 2 6 1020.9 1020.9 0.0
17/11:30am 16.0 13.9 8.2 60 3.9 NE 9 13 5 7 1021.7 1021.7 0.0
17/11:00am 15.9 14.2 8.4 61 3.8 E 7 15 4 8 1022.3 1022.3 0.0
17/10:30am 15.5 14.1 8.7 64 3.5 E 6 13 3 7 1023.1 1023.1 0.0
17/10:00am 14.7 12.6 8.2 65 3.2 ESE 9 15 5 8 1023.5 1023.5 0.0
17/09:30am 14.2 12.7 8.4 68 2.9 SSE 6 9 3 5 1024.0 1024.0 0.0
17/09:00am 13.5 13.3 9.0 74 2.3 CALM 0 0 0 0 1024.5 1024.5 0.0
17/08:30am 12.2 11.6 8.9 80 1.6 ESE 2 7 1 4 1024.5 1024.5 0.0
17/08:00am 11.6 11.6 9.9 89 0.9 CALM 0 0 0 0 1024.2 1024.2 0.0
17/07:30am 10.4 10.2 9.2 92 0.6 CALM 0 0 0 0 1023.9 1023.9 0.0
17/07:00am 10.2 10.0 9.1 93 0.5 CALM 0 6 0 3 1023.6 1023.6 0.0
17/06:30am 10.1 9.8 8.7 91 0.7 CALM 0 0 0 0 1023.6 1023.6 0.0
17/06:00am 10.4 10.2 9.0 91 0.7 CALM 0 0 0 0 1023.4 1023.4 0.0
17/05:30am 10.8 10.6 9.1 89 0.8 CALM 0 0 0 0 1023.3 1023.3 0.0
17/05:00am 10.8 10.6 8.9 88 0.9 CALM 0 0 0 0 1023.3 1023.3 0.0
17/04:30am 11.0 10.8 8.9 87 1.0 CALM 0 0 0 0 1023.5 1023.5 0.0
17/04:00am 11.1 10.8 8.8 86 1.1 CALM 0 0 0 0 1023.0 1023.0 0.0
17/03:30am 11.6 11.3 8.6 82 1.5 CALM 0 0 0 0 1022.9 1022.9 0.0
17/03:00am 12.2 11.9 8.5 78 1.8 CALM 0 0 0 0 1023.2 1023.2 0.0
17/02:30am 13.1 12.3 8.0 71 2.5 ENE 2 7 1 4 1023.8 1023.8 0.0
17/02:00am 13.0 12.5 7.9 71 2.5 CALM 0 0 0 0 1024.4 1024.4 0.0
17/01:30am 13.4 12.5 7.8 69 2.8 SE 2 9 1 5 1024.8 1024.8 0.0
17/01:00am 13.8 12.2 7.8 67 2.9 E 6 11 3 6 1025.2 1025.2 0.0
17/12:30am 13.4 12.9 8.0 70 2.7 CALM 0 6 0 3 1025.5 1025.5 0.0
17/12:00am 13.9 12.2 7.7 66 3.0 ESE 6 11 3 6 1025.9 1025.9 0.0
 
Date/Time
EST
Tmp

°C
App
Tmp
°C
Dew
Point
°C
Rel
Hum
%
Delta-T

°C
Wind Press
QNH
hPa
Press
MSL
hPa
Rain
since
9 am
mm
Dir
 
Spd
km/h
Gust
km/h
Spd
kts
Gust
kts
16/11:30pm 14.2 13.3 7.9 66 3.1 SSE 2 7 1 4 1026.3 1026.3 0.0
16/11:00pm 14.2 12.9 7.7 65 3.2 ESE 4 9 2 5 1026.5 1026.5 0.0
16/10:30pm 14.1 13.0 8.3 68 2.9 SSE 4 9 2 5 1026.4 1026.4 0.0
16/10:00pm 14.1 12.9 8.1 67 3.0 SSE 4 9 2 5 1026.5 1026.5 0.0
16/09:30pm 14.2 12.3 7.7 65 3.2 SSE 7 11 4 6 1026.2 1026.2 0.0
16/09:00pm 14.1 12.4 7.6 65 3.2 SSE 6 13 3 7 1026.3 1026.3 0.0
16/08:30pm 14.2 12.5 7.5 64 3.3 S 6 11 3 6 1026.3 1026.3 0.0
16/08:00pm 14.4 12.7 7.5 63 3.4 SSE 6 13 3 7 1026.4 1026.4 0.0
16/07:30pm 14.7 13.0 7.5 62 3.6 SE 6 11 3 6 1026.0 1026.0 0.0
16/07:00pm 14.9 13.0 7.7 62 3.6 SSE 7 15 4 8 1025.5 1025.5 0.0
16/06:30pm 15.1 12.7 8.6 65 3.3 S 11 20 6 11 1025.3 1025.3 0.0
16/06:00pm 15.4 13.3 8.2 62 3.6 S 9 15 5 8 1025.3 1025.3 0.0
16/05:30pm 15.5 13.4 8.3 62 3.6 S 9 17 5 9 1024.9 1024.9 0.0
16/05:00pm 15.7 13.5 8.0 60 3.8 S 9 17 5 9 1024.6 1024.6 0.0
16/04:30pm 15.9 13.4 8.4 61 3.8 S 11 19 6 10 1024.6 1024.6 0.0
16/04:00pm 16.2 13.7 8.2 59 4.0 S 11 20 6 11 1024.5 1024.5 0.0
16/03:30pm 16.8 14.8 8.8 59 4.1 SSE 9 17 5 9 1024.4 1024.4 0.0
16/03:00pm 16.9 14.5 8.8 59 4.1 S 11 19 6 10 1024.4 1024.4 0.0
16/02:30pm 16.6 14.1 8.3 58 4.2 SSW 11 22 6 12 1024.5 1024.5 0.0
16/02:00pm 17.2 14.5 9.1 59 4.2 SSW 13 19 7 10 1024.6 1024.6 0.0
16/01:30pm 16.8 14.1 8.8 59 4.1 S 13 24 7 13 1024.6 1024.6 0.0
16/01:00pm 16.2 13.4 8.7 61 3.8 SSW 13 22 7 12 1024.9 1024.9 0.0
16/12:30pm 16.5 13.0 8.7 60 4.0 SSW 17 26 9 14 1025.3 1025.3 0.0
16/12:00pm 17.4 14.5 9.6 60 4.1 SSW 15 28 8 15 1025.7 1025.7 0.0
16/11:30am 17.0 13.9 10.4 65 3.5 SSW 17 28 9 15 1025.6 1025.6 0.0
16/11:00am 16.3 14.0 10.4 68 3.1 S 13 22 7 12 1025.7 1025.7 0.0
16/10:30am 16.6 14.2 11.3 71 2.9 SSW 15 26 8 14 1025.5 1025.5 0.0
16/10:00am 16.4 14.6 12.0 75 2.4 S 13 26 7 14 1025.8 1025.8 0.0
16/09:30am 16.4 15.3 13.1 81 1.8 SSW 11 22 6 12 1025.5 1025.5 0.0
16/09:00am 15.9 14.8 13.0 83 1.6 S 11 20 6 11 1025.3 1025.3 0.0
16/08:30am 15.8 15.0 12.9 83 1.6 WSW 9 15 5 8 1025.0 1025.0 0.0
16/08:00am 15.8 15.3 12.7 82 1.7 W 7 11 4 6 1024.6 1024.6 0.0
16/07:30am 15.6 15.3 12.7 83 1.6 WSW 6 13 3 7 1024.0 1024.0 0.0
16/07:00am 15.7 15.2 12.8 83 1.6 WSW 7 13 4 7 1023.7 1023.7 0.0
16/06:30am 16.1 15.7 13.0 82 1.7 W 7 17 4 9 1023.5 1023.5 0.0
16/06:00am 16.3 16.1 13.0 81 1.8 SW 6 13 3 7 1023.0 1023.0 0.0
16/05:30am 16.5 16.3 13.0 80 1.9 W 6 15 3 8 1022.6 1022.6 0.0
16/05:00am 16.7 16.6 13.2 80 2.0 WSW 6 13 3 7 1022.0 1022.0 0.0
16/04:30am 16.7 16.4 13.2 80 2.0 W 7 17 4 9 1021.7 1021.7 0.0
16/04:00am 16.8 16.2 13.5 81 1.9 W 9 17 5 9 1021.6 1021.6 0.0
16/03:30am 16.8 17.0 14.1 84 1.5 W 6 11 3 6 1021.4 1021.4 0.0
16/03:00am 16.6 16.9 14.4 87 1.3 W 6 19 3 10 1021.5 1021.5 0.0
16/02:30am 16.6 15.5 14.2 86 1.4 W 13 30 7 16 1021.7 1021.7 0.0
16/02:00am 17.7 17.1 13.4 76 2.4 WSW 9 20 5 11 1021.4 1021.4 0.0
16/01:30am 17.7 18.0 13.4 76 2.4 W 4 13 2 7 1021.4 1021.4 0.0
16/01:00am 17.6 18.0 13.7 78 2.2 W 4 11 2 6 1021.4 1021.4 0.0
16/12:30am 17.9 18.0 14.4 80 2.0 WSW 7 19 4 10 1021.6 1021.6 0.0
16/12:00am 17.8 19.6 15.6 87 1.3 CALM 0 6 0 3 1021.5 1021.5 0.0
 
Date/Time
EST
Tmp

°C
App
Tmp
°C
Dew
Point
°C
Rel
Hum
%
Delta-T

°C
Wind Press
QNH
hPa
Press
MSL
hPa
Rain
since
9 am
mm
Dir
 
Spd
km/h
Gust
km/h
Spd
kts
Gust
kts
15/11:30pm 17.7 19.4 15.3 86 1.4 CALM 0 0 0 0 1021.4 1021.4 0.0
15/11:00pm 17.8 19.6 15.4 86 1.4 CALM 0 0 0 0 1021.6 1021.6 0.0
15/10:30pm 17.8 19.6 15.4 86 1.4 CALM 0 0 0 0 1021.7 1021.7 0.0
15/10:00pm 17.8 19.2 15.4 86 1.4 SSW 2 9 1 5 1021.5 1021.5 0.0
15/09:30pm 17.8 17.8 15.2 85 1.5 SSW 9 15 5 8 1021.2 1021.2 0.0
15/09:00pm 17.7 18.9 15.0 84 1.6 SSW 2 11 1 6 1020.7 1020.7 0.0
15/08:30pm 18.1 19.0 15.2 83 1.7 SSW 4 15 2 8 1020.4 1020.4 0.0
15/08:00pm 18.2 18.5 15.1 82 1.8 S 7 15 4 8 1019.8 1019.8 0.0
15/07:30pm 18.3 18.1 14.8 80 2.0 SSW 9 19 5 10 1019.3 1019.3 0.0
15/07:00pm 18.5 18.8 14.6 78 2.3 SSW 6 11 3 6 1018.7 1018.7 0.0
15/06:30pm 18.9 18.2 14.4 75 2.6 SSW 11 22 6 12 1018.4 1018.4 0.0
15/06:00pm 19.3 18.1 13.9 71 3.1 SSW 13 26 7 14 1017.6 1017.6 0.0
15/05:30pm 20.9 19.3 15.0 69 3.5 SSW 17 32 9 17 1017.2 1017.2 0.0
15/05:29pm 21.1 19.0 14.7 67 3.8 SSW 19 39 10 21 1017.1 1017.1 0.0
15/05:00pm 26.1 24.0 12.5 42 7.9 N 15 24 8 13 1016.0 1016.0 0.0
15/04:30pm 26.1 23.2 12.9 44 7.7 NNW 20 32 11 17 1015.8 1015.8 0.0
15/04:00pm 26.8 23.9 12.4 40 8.3 N 19 30 10 16 1015.6 1015.6 0.0
15/03:30pm 27.0 23.6 12.6 41 8.4 N 22 35 12 19 1015.5 1015.5 0.0
15/03:00pm 27.0 23.5 12.3 40 8.5 NNW 22 35 12 19 1015.5 1015.5 0.0
15/02:30pm 27.1 24.1 12.0 39 8.7 NW 19 32 10 17 1015.3 1015.3 0.0
15/02:00pm 27.2 24.0 12.0 38 8.8 NNW 20 35 11 19 1015.4 1015.4 0.0
15/01:30pm 27.3 23.3 11.7 37 9.0 N 24 39 13 21 1015.4 1015.4 0.0

Latest Capital City Observations: Canberra | Sydney | Melbourne | Brisbane | Adelaide | Perth | Hobart | Darwin

Other Formats:

Comma delimited format used in spreadsheet applications
http://www.bom.gov.au/fwo/IDV60901/IDV60901.95936.axf

JavaScript Object Notation format (JSON) in row-major order
http://www.bom.gov.au/fwo/IDV60901/IDV60901.95936.json